Time;durP1;ratioP1;P1;durP2;ratioP2;P2;SDS_P1;SDS_P2;PMS_P1;PMS_P2;Temp;Humidity;BMP_temperature;BMP_pressure;BME280_temperature;BME280_humidity;BME280_pressure;Samples;Min_cycle;Max_cycle;Signal;HPM_P1;HPM_P2
2022/07/22 00:00:44;;;;;;;5.72;5.22;;;;;;;20.93;85.84;100989.09;5051719;28;20402;-55
2022/07/22 00:03:12;;;;;;;6.90;5.15;;;;;;;20.94;85.51;100988.13;5054315;28;20055;-52
2022/07/22 00:05:39;;;;;;;8.38;6.07;;;;;;;20.94;85.87;100988.13;5056244;28;20053;-57
2022/07/22 00:08:06;;;;;;;7.75;6.28;;;;;;;20.92;86.23;100988.25;5050118;28;20060;-56
2022/07/22 00:10:33;;;;;;;5.97;5.38;;;;;;;20.86;85.20;100985.34;5055639;28;20052;-55
2022/07/22 00:13:00;;;;;;;6.30;4.78;;;;;;;20.87;85.40;100987.03;5050182;28;20156;-54
2022/07/22 00:15:28;;;;;;;7.22;5.45;;;;;;;20.88;84.57;100992.22;5049836;28;20048;-51
2022/07/22 00:17:55;;;;;;;6.65;5.55;;;;;;;20.88;84.86;100994.91;5054995;28;20303;-57
2022/07/22 00:20:22;;;;;;;10.07;6.18;;;;;;;20.90;84.36;100994.78;5050400;28;20137;-55
2022/07/22 00:22:49;;;;;;;9.98;5.35;;;;;;;20.89;84.11;101003.78;5059719;28;20048;-56
2022/07/22 00:25:17;;;;;;;8.00;5.10;;;;;;;20.88;83.89;101002.09;5050474;28;20041;-51
2022/07/22 00:27:44;;;;;;;6.88;4.43;;;;;;;20.90;83.54;101005.47;5050084;28;20056;-56
2022/07/22 00:30:11;;;;;;;9.05;5.18;;;;;;;20.89;82.58;101004.63;5053748;28;20068;-52
2022/07/22 00:32:38;;;;;;;7.05;5.28;;;;;;;20.89;82.29;101006.44;5051444;28;20115;-54
2022/07/22 00:35:06;;;;;;;5.85;4.40;;;;;;;20.85;82.00;101011.28;5047410;28;20048;-59
2022/07/22 00:37:33;;;;;;;5.97;4.28;;;;;;;20.84;81.43;101009.56;5052604;28;20056;-54
2022/07/22 00:40:00;;;;;;;6.07;4.72;;;;;;;20.80;81.95;101004.66;5055800;28;20063;-56
2022/07/22 00:42:27;;;;;;;5.47;4.47;;;;;;;20.79;82.12;101013.69;5051389;28;20053;-54
2022/07/22 00:44:55;;;;;;;5.97;4.55;;;;;;;20.64;82.69;101006.13;5057848;28;20056;-56
2022/07/22 00:47:23;;;;;;;5.88;5.10;;;;;;;20.56;83.52;101014.03;5055082;28;20071;-55
2022/07/22 00:49:50;;;;;;;5.60;4.55;;;;;;;20.59;83.04;101011.09;5044805;28;20469;-58
2022/07/22 00:52:19;;;;;;;6.57;4.82;;;;;;;20.60;83.19;101009.25;5042778;28;20052;-56
2022/07/22 00:54:46;;;;;;;6.32;4.38;;;;;;;20.62;83.23;101015.28;5054774;28;20067;-58
2022/07/22 00:57:13;;;;;;;5.80;5.28;;;;;;;20.58;83.44;101009.41;5057205;28;20041;-54
2022/07/22 00:59:40;;;;;;;7.95;5.20;;;;;;;20.55;84.04;101016.88;5048282;28;20061;-57
2022/07/22 01:02:08;;;;;;;9.00;5.32;;;;;;;20.56;83.75;101019.41;5048729;28;20506;-54
2022/07/22 01:04:36;;;;;;;6.25;4.28;;;;;;;20.53;83.93;101014.31;5057308;28;20052;-58
2022/07/22 01:07:03;;;;;;;5.45;4.82;;;;;;;20.52;84.12;101018.00;5050044;28;20056;-55
2022/07/22 01:09:30;;;;;;;5.93;4.88;;;;;;;20.45;84.13;101011.53;5049138;28;20049;-55
2022/07/22 01:11:57;;;;;;;6.18;4.93;;;;;;;20.39;84.28;101009.41;5044817;28;20057;-53
2022/07/22 01:14:25;;;;;;;5.22;4.65;;;;;;;20.32;84.40;101003.81;5055006;28;20049;-57
2022/07/22 01:16:52;;;;;;;5.45;4.07;;;;;;;20.27;84.78;101003.41;5050351;28;20465;-54
2022/07/22 01:19:19;;;;;;;5.95;4.63;;;;;;;20.23;84.99;101015.38;5052200;28;20056;-56
2022/07/22 01:21:46;;;;;;;4.90;4.38;;;;;;;20.23;84.90;101015.38;5030145;28;20057;-51
2022/07/22 01:24:14;;;;;;;5.63;4.10;;;;;;;20.20;85.03;101016.47;5051423;28;20055;-53
2022/07/22 01:26:41;;;;;;;6.72;4.50;;;;;;;20.22;85.19;101009.19;5050273;28;20057;-55
2022/07/22 01:29:08;;;;;;;9.65;4.30;;;;;;;20.21;85.73;101001.28;5053254;28;20059;-54
2022/07/22 01:31:35;;;;;;;5.35;4.55;;;;;;;20.18;85.38;101017.63;5050031;28;20060;-57
2022/07/22 01:34:02;;;;;;;6.13;4.30;;;;;;;20.15;85.78;101015.22;5055907;28;20071;-52
2022/07/22 01:36:30;;;;;;;8.73;4.32;;;;;;;20.11;85.75;101012.00;5048302;28;20048;-54
2022/07/22 01:38:57;;;;;;;5.13;3.75;;;;;;;20.02;86.67;101015.53;5056534;28;20063;-55
2022/07/22 01:41:25;;;;;;;4.50;3.72;;;;;;;20.02;86.86;101012.84;5044908;28;20053;-57
2022/07/22 01:43:52;;;;;;;5.15;4.18;;;;;;;19.97;87.15;101009.75;5051242;28;20067;-50
2022/07/22 01:46:19;;;;;;;6.45;4.43;;;;;;;19.89;87.44;101006.94;5050941;28;20049;-57
2022/07/22 01:48:47;;;;;;;4.65;4.00;;;;;;;19.89;87.56;101006.94;5050149;28;20060;-54
2022/07/22 01:51:14;;;;;;;4.60;3.90;;;;;;;19.86;87.94;101010.78;5052816;28;20103;-53
2022/07/22 01:53:41;;;;;;;10.25;4.53;;;;;;;19.80;88.77;101011.31;5066814;28;20529;-52
2022/07/22 01:56:08;;;;;;;5.53;4.35;;;;;;;19.83;88.59;101015.53;5069848;28;20059;-57
2022/07/22 01:58:35;;;;;;;10.30;4.30;;;;;;;19.79;89.09;101014.13;5070236;28;20049;-55
2022/07/22 02:01:07;;;;;;;6.43;3.80;;;;;;;19.71;89.61;101014.81;5062317;28;20055;-55
2022/07/22 02:03:35;;;;;;;6.10;4.43;;;;;;;19.73;89.80;101002.19;5046089;28;20155;-57
2022/07/22 02:06:03;;;;;;;6.70;4.15;;;;;;;19.71;89.77;101007.66;5054470;28;20041;-58
2022/07/22 02:08:30;;;;;;;5.35;4.43;;;;;;;19.65;90.48;101004.72;5052687;28;20045;-53
2022/07/22 02:10:58;;;;;;;5.65;4.53;;;;;;;19.66;90.42;101009.06;5052966;28;20390;-54
2022/07/22 02:13:25;;;;;;;7.00;4.72;;;;;;;19.65;90.04;101010.91;5054648;28;20055;-51
2022/07/22 02:15:53;;;;;;;4.40;4.00;;;;;;;19.59;90.63;101007.91;5050921;28;20060;-54
2022/07/22 02:18:20;;;;;;;5.32;4.35;;;;;;;19.57;90.89;101016.06;5055457;28;20045;-54
2022/07/22 02:20:47;;;;;;;4.85;4.05;;;;;;;19.58;91.08;101012.38;5049232;28;20067;-57
2022/07/22 02:23:14;;;;;;;5.72;4.47;;;;;;;19.56;91.27;101011.69;5055985;28;20053;-54
2022/07/22 02:25:42;;;;;;;4.82;4.32;;;;;;;19.43;92.66;101011.13;5051141;28;20053;-56
2022/07/22 02:28:09;;;;;;;8.10;4.82;;;;;;;19.39;93.40;101009.69;5046391;28;20050;-55
2022/07/22 02:30:37;;;;;;;5.60;4.63;;;;;;;19.40;93.04;101019.41;5054488;28;20393;-55
2022/07/22 02:33:04;;;;;;;6.43;4.80;;;;;;;19.39;93.29;101015.03;5049598;28;20053;-56
2022/07/22 02:35:31;;;;;;;7.65;5.03;;;;;;;19.35;93.89;101016.28;5048804;28;20049;-53
2022/07/22 02:37:59;;;;;;;5.38;4.85;;;;;;;19.33;93.68;101018.28;5049768;28;20052;-56
2022/07/22 02:40:28;;;;;;;6.47;4.63;;;;;;;19.35;93.87;101019.81;5055831;28;20061;-55
2022/07/22 02:42:55;;;;;;;6.28;5.30;;;;;;;19.29;94.72;101011.53;5055437;28;20064;-55
2022/07/22 02:45:23;;;;;;;5.40;4.60;;;;;;;19.31;94.41;101022.88;5051115;28;20064;-56
2022/07/22 02:47:53;;;;;;;7.85;5.30;;;;;;;19.29;94.56;101017.69;5055208;28;20045;-56
2022/07/22 02:50:21;;;;;;;8.23;5.30;;;;;;;19.30;94.56;101018.53;5058996;28;20052;-56
2022/07/22 02:52:48;;;;;;;8.95;5.35;;;;;;;19.29;94.60;101025.72;5053038;28;20057;-52
2022/07/22 02:55:16;;;;;;;6.55;5.30;;;;;;;19.29;94.86;101027.53;5060960;28;20393;-55
2022/07/22 02:57:44;;;;;;;11.23;5.63;;;;;;;19.28;94.83;101028.53;5058348;28;20513;-55
2022/07/22 03:00:13;;;;;;;7.07;5.68;;;;;;;19.24;95.79;101027.94;5042549;28;20081;-57
2022/07/22 03:02:40;;;;;;;9.32;6.47;;;;;;;19.18;96.25;101028.47;5057459;28;20164;-55
2022/07/22 03:05:07;;;;;;;7.35;6.07;;;;;;;19.15;96.55;101023.44;5055469;28;20048;-57
2022/07/22 03:07:35;;;;;;;8.07;6.53;;;;;;;19.14;96.69;101021.75;5053376;28;20045;-57
2022/07/22 03:10:03;;;;;;;7.72;6.13;;;;;;;19.09;97.40;101018.63;5054588;28;20060;-57
2022/07/22 03:12:30;;;;;;;7.28;5.75;;;;;;;19.08;97.25;101023.09;5053298;28;20048;-53
2022/07/22 03:14:57;;;;;;;8.45;6.20;;;;;;;19.07;97.37;101024.09;5061582;28;20048;-53
2022/07/22 03:17:24;;;;;;;7.30;6.60;;;;;;;19.05;97.93;101028.75;5056142;28;20041;-51
2022/07/22 03:19:51;;;;;;;8.32;6.72;;;;;;;19.00;98.51;101024.75;5048966;28;20085;-54
2022/07/22 03:22:19;;;;;;;9.55;6.65;;;;;;;18.91;98.93;101023.75;5053074;28;20055;-54
2022/07/22 03:24:46;;;;;;;9.00;6.68;;;;;;;18.93;98.64;101017.31;5055382;28;20449;-57
2022/07/22 03:27:13;;;;;;;8.48;7.28;;;;;;;18.95;98.67;101025.16;5056191;28;20045;-57
2022/07/22 03:29:40;;;;;;;7.57;6.88;;;;;;;18.90;99.33;101016.72;5049002;28;20048;-56
2022/07/22 03:32:07;;;;;;;14.13;7.68;;;;;;;18.88;99.73;101024.88;5054674;28;20063;-55
2022/07/22 03:34:34;;;;;;;7.25;6.30;;;;;;;18.88;99.74;101024.03;5055401;28;20049;-58
2022/07/22 03:37:02;;;;;;;9.45;7.68;;;;;;;18.84;100.00;101025.28;5052575;28;20064;-55
2022/07/22 03:39:29;;;;;;;9.00;7.90;;;;;;;18.79;100.00;101036.34;5059667;28;20513;-57
2022/07/22 03:41:58;;;;;;;7.95;7.03;;;;;;;18.76;100.00;101035.75;5055567;28;20052;-55
2022/07/22 03:44:25;;;;;;;7.57;6.50;;;;;;;18.77;100.00;101032.13;5060505;28;20045;-53
2022/07/22 03:46:52;;;;;;;8.02;7.10;;;;;;;18.78;100.00;101036.47;5056446;28;20562;-53
2022/07/22 03:49:19;;;;;;;8.40;7.40;;;;;;;18.77;100.00;101046.28;5052857;28;20501;-59
2022/07/22 03:51:46;;;;;;;9.18;7.72;;;;;;;18.73;100.00;101044.88;5059624;28;20060;-55
2022/07/22 03:54:13;;;;;;;11.00;9.00;;;;;;;18.76;100.00;101049.94;5054377;28;20041;-56
2022/07/22 03:56:41;;;;;;;9.02;8.13;;;;;;;18.82;100.00;101051.22;5051719;28;20053;-54
2022/07/22 03:59:08;;;;;;;12.32;9.45;;;;;;;18.82;100.00;101051.22;5055689;28;20045;-54
2022/07/22 04:01:35;;;;;;;11.73;9.88;;;;;;;18.78;100.00;101039.13;5055597;28;20056;-55
2022/07/22 04:04:02;;;;;;;13.60;8.82;;;;;;;18.80;100.00;101043.38;5048611;28;20049;-53
2022/07/22 04:06:31;;;;;;;11.90;10.27;;;;;;;18.75;100.00;101050.94;5057228;28;20045;-56
2022/07/22 04:08:58;;;;;;;10.57;9.45;;;;;;;18.69;100.00;101046.13;5056802;28;20053;-57
2022/07/22 04:11:27;;;;;;;11.18;9.80;;;;;;;18.73;100.00;101044.88;5048469;28;20049;-55
2022/07/22 04:13:54;;;;;;;11.02;8.88;;;;;;;18.80;100.00;101046.03;5059926;28;20067;-57
2022/07/22 04:16:21;;;;;;;10.80;9.63;;;;;;;18.80;100.00;101038.03;5054429;28;20071;-52
2022/07/22 04:18:48;;;;;;;12.23;9.60;;;;;;;18.86;100.00;101045.50;5061961;28;20052;-54
2022/07/22 04:21:16;;;;;;;13.05;10.30;;;;;;;18.85;100.00;101043.81;5052750;28;20060;-52
2022/07/22 04:23:43;;;;;;;10.60;9.60;;;;;;;18.95;100.00;101049.19;5055417;28;20412;-52
2022/07/22 04:26:10;;;;;;;12.50;9.68;;;;;;;18.95;100.00;101047.34;5053995;28;20045;-59
2022/07/22 04:28:37;;;;;;;11.13;9.82;;;;;;;18.95;100.00;101051.84;5056478;28;20048;-54
2022/07/22 04:31:04;;;;;;;11.23;9.63;;;;;;;18.96;100.00;101045.56;5047866;28;20537;-59
2022/07/22 04:33:31;;;;;;;14.07;11.02;;;;;;;18.96;100.00;101043.72;5057246;28;20044;-51
2022/07/22 04:35:59;;;;;;;13.52;9.45;;;;;;;18.99;100.00;101047.94;5051317;28;20061;-56
2022/07/22 04:38:26;;;;;;;14.15;10.48;;;;;;;19.08;100.00;101041.78;5051379;28;20059;-56
2022/07/22 04:40:53;;;;;;;14.65;10.77;;;;;;;19.12;99.27;101048.53;5049375;28;20045;-53
2022/07/22 04:43:21;;;;;;;14.77;11.10;;;;;;;19.11;99.04;101049.53;5057095;28;20064;-57
2022/07/22 04:45:48;;;;;;;15.60;11.75;;;;;;;19.11;99.20;101043.34;5052377;28;20060;-57
2022/07/22 04:48:16;;;;;;;10.95;9.23;;;;;;;19.12;99.36;101051.22;5055325;28;20057;-54
2022/07/22 04:54:50;;;;;;;14.35;9.75;;;;;;;19.13;98.61;101050.22;5049841;28;20121;-56
2022/07/22 04:57:17;;;;;;;13.57;12.18;;;;;;;19.16;98.18;101054.47;5051678;28;20045;-53
2022/07/22 04:59:44;;;;;;;13.45;11.35;;;;;;;19.11;98.76;101057.53;5059933;28;20139;-57
2022/07/22 05:02:11;;;;;;;13.07;11.43;;;;;;;19.10;98.71;101063.03;5044932;28;20056;-56
2022/07/22 05:04:39;;;;;;;12.82;11.32;;;;;;;19.11;98.93;101054.88;5059397;28;20053;-56
2022/07/22 05:07:06;;;;;;;14.52;11.07;;;;;;;19.16;98.48;101049.13;5051685;28;20057;-57
2022/07/22 05:09:33;;;;;;;10.68;9.55;;;;;;;19.22;98.48;101056.59;5050647;28;20045;-59
2022/07/22 05:12:00;;;;;;;11.40;9.88;;;;;;;19.23;98.02;101058.28;5043819;28;20076;-58
2022/07/22 05:14:27;;;;;;;19.23;12.05;;;;;;;19.26;97.61;101054.50;5059366;28;20057;-56
2022/07/22 05:16:55;;;;;;;12.90;11.60;;;;;;;19.31;97.24;101054.91;5053111;28;20057;-58
2022/07/22 05:19:22;;;;;;;12.30;11.02;;;;;;;19.33;96.88;101051.16;5057896;28;20147;-54
2022/07/22 05:21:49;;;;;;;12.05;10.80;;;;;;;19.35;96.75;101054.50;5054007;28;20053;-56
2022/07/22 05:24:16;;;;;;;12.73;11.43;;;;;;;19.39;96.82;101052.41;5054214;28;20044;-54
2022/07/22 05:26:43;;;;;;;14.10;12.60;;;;;;;19.39;96.50;101057.75;5052081;28;20048;-54
2022/07/22 05:29:10;;;;;;;13.68;11.32;;;;;;;19.32;96.31;101060.16;5052270;28;20053;-54
2022/07/22 05:31:38;;;;;;;11.98;10.75;;;;;;;19.33;96.16;101069.00;5074014;22;20060;-57
2022/07/22 05:34:07;;;;;;;15.25;10.43;;;;;;;19.35;96.22;101057.19;5055039;28;20067;-58
2022/07/22 05:36:35;;;;;;;12.52;11.23;;;;;;;19.39;95.87;101058.59;5055599;28;20051;-55
2022/07/22 05:39:02;;;;;;;13.20;10.07;;;;;;;19.48;95.36;101067.63;5056914;28;20053;-57
2022/07/22 05:41:30;;;;;;;15.75;11.88;;;;;;;19.53;94.81;101069.88;5047262;28;20511;-56
2022/07/22 05:43:57;;;;;;;16.75;12.15;;;;;;;19.52;94.73;101071.72;5059914;28;20527;-57
2022/07/22 05:46:24;;;;;;;16.30;11.98;;;;;;;19.45;94.51;101065.22;5050992;28;20128;-55
2022/07/22 05:48:51;;;;;;;13.38;10.13;;;;;;;19.47;94.94;101065.94;5053603;28;20041;-56
2022/07/22 05:51:19;;;;;;;11.18;9.63;;;;;;;19.61;94.59;101065.56;5053031;28;20063;-58
2022/07/22 05:53:46;;;;;;;13.95;10.32;;;;;;;19.65;93.22;101077.66;5053886;28;20481;-56
2022/07/22 05:56:13;;;;;;;12.50;10.07;;;;;;;19.66;93.61;101065.16;5054240;28;20049;-58
2022/07/22 05:58:42;;;;;;;12.18;10.98;;;;;;;19.73;92.67;101064.47;5051110;28;20059;-56
2022/07/22 06:01:10;;;;;;;11.85;9.82;;;;;;;19.80;92.35;101055.88;5052855;28;20052;-56
2022/07/22 06:03:38;;;;;;;14.48;10.55;;;;;;;19.75;92.54;101075.00;5049097;28;20078;-58
2022/07/22 06:06:08;;;;;;;11.30;10.10;;;;;;;19.75;92.51;101068.81;5047148;28;20408;-56
2022/07/22 06:08:36;;;;;;;12.13;10.82;;;;;;;19.76;92.29;101074.00;5056790;28;20044;-56
2022/07/22 06:11:03;;;;;;;12.88;10.70;;;;;;;19.80;91.78;101078.09;5051510;28;20055;-56
2022/07/22 06:13:30;;;;;;;13.65;11.73;;;;;;;19.76;92.09;101074.00;5048876;28;20052;-58
2022/07/22 06:15:58;;;;;;;15.95;9.80;;;;;;;19.85;92.01;101061.66;5051936;28;20059;-56
2022/07/22 06:18:25;;;;;;;11.88;10.57;;;;;;;19.86;91.63;101071.38;5055509;28;20049;-56
2022/07/22 06:20:52;;;;;;;13.95;10.30;;;;;;;19.86;91.89;101071.38;5050959;28;20054;-57
2022/07/22 06:23:20;;;;;;;11.63;10.00;;;;;;;19.81;91.87;101073.59;5056936;28;20140;-54
2022/07/22 06:25:47;;;;;;;11.77;10.05;;;;;;;19.92;91.77;101074.31;5049813;28;20057;-55
2022/07/22 06:28:14;;;;;;;10.77;9.70;;;;;;;20.12;90.59;101075.16;5056368;28;20397;-57
2022/07/22 06:30:41;;;;;;;11.77;8.93;;;;;;;20.28;89.84;101077.28;5046672;28;20108;-56
2022/07/22 06:33:09;;;;;;;10.20;8.73;;;;;;;20.33;88.79;101069.66;5048145;28;20059;-56
2022/07/22 06:35:39;;;;;;;13.43;10.88;;;;;;;20.28;88.32;101071.94;5051428;28;20052;-56
2022/07/22 06:38:06;;;;;;;15.15;10.10;;;;;;;20.42;87.99;101067.97;5048626;28;20053;-58
2022/07/22 06:40:34;;;;;;;14.45;9.88;;;;;;;20.58;86.98;101078.97;5055965;28;20390;-56
2022/07/22 06:43:02;;;;;;;10.77;9.63;;;;;;;20.64;86.50;101074.84;5057251;28;20056;-54
2022/07/22 06:45:30;;;;;;;11.95;9.38;;;;;;;20.73;86.09;101066.78;5048315;28;20057;-58
2022/07/22 06:47:57;;;;;;;16.02;9.98;;;;;;;20.66;86.52;101060.31;5056187;28;20049;-56
2022/07/22 06:50:24;;;;;;;15.43;9.73;;;;;;;20.76;85.69;101062.13;5047319;28;20071;-55
2022/07/22 06:52:53;;;;;;;10.00;7.85;;;;;;;21.06;85.17;101075.25;5052174;28;20048;-56
2022/07/22 06:55:20;;;;;;;12.38;9.00;;;;;;;21.16;83.07;101065.38;5048538;28;20053;-57
2022/07/22 06:57:48;;;;;;;13.15;8.93;;;;;;;21.32;82.77;101071.94;5055331;28;20056;-57
2022/07/22 07:00:15;;;;;;;9.70;8.70;;;;;;;21.40;81.31;101066.69;5054060;28;20045;-57
2022/07/22 07:02:43;;;;;;;13.13;8.85;;;;;;;21.54;80.85;101060.81;5053145;28;20071;-57
2022/07/22 07:05:10;;;;;;;11.32;8.32;;;;;;;21.44;80.15;101065.41;5045573;28;20310;-56
2022/07/22 07:07:47;;;;;;;12.82;9.05;;;;;;;20.97;82.80;101076.97;5059026;28;20391;-56
2022/07/22 07:10:15;;;;;;;11.30;9.32;;;;;;;21.15;82.70;101079.72;5049064;28;20103;-56
2022/07/22 07:12:43;;;;;;;9.70;8.80;;;;;;;21.31;81.21;101063.06;5043258;28;20053;-57
2022/07/22 07:15:11;;;;;;;13.20;8.35;;;;;;;21.38;80.69;101074.00;5058986;28;20053;-55
2022/07/22 07:17:52;;;;;;;8.30;7.43;;;;;;;21.53;80.85;101075.22;5060006;28;20105;-58
2022/07/22 07:20:20;;;;;;;11.40;8.48;;;;;;;21.69;79.57;101078.03;5056160;28;20055;-58
2022/07/22 07:22:47;;;;;;;14.38;8.05;;;;;;;21.48;79.47;101069.47;5046748;28;20045;-57
2022/07/22 07:25:14;;;;;;;10.18;7.68;;;;;;;21.51;79.32;101084.38;5054985;28;20057;-58
2022/07/22 07:27:51;;;;;;;11.82;8.15;;;;;;;21.58;79.12;101078.28;5047547;28;20055;-57
2022/07/22 07:30:20;;;;;;;9.70;7.68;;;;;;;21.73;78.13;101066.03;5056041;28;20037;-57
2022/07/22 07:32:48;;;;;;;8.98;8.05;;;;;;;21.86;77.54;101064.81;5055503;28;20053;-57
2022/07/22 07:35:15;;;;;;;20.67;8.40;;;;;;;22.00;76.33;101073.16;5060602;28;20056;-57
2022/07/22 07:37:42;;;;;;;10.18;7.28;;;;;;;21.96;75.51;101065.56;5045103;28;20144;-56
2022/07/22 07:40:10;;;;;;;8.10;6.50;;;;;;;22.13;75.61;101066.59;5052680;28;20049;-56
2022/07/22 07:42:37;;;;;;;7.75;6.60;;;;;;;22.18;74.84;101069.66;5058184;28;20056;-56
2022/07/22 07:45:13;;;;;;;9.77;7.00;;;;;;;21.71;75.30;101067.19;5040319;28;20524;-57
2022/07/22 07:47:40;;;;;;;8.88;6.57;;;;;;;21.87;74.22;101064.66;5060560;28;20063;-57
2022/07/22 07:50:08;;;;;;;11.23;6.07;;;;;;;21.92;74.82;101056.16;5055994;28;20045;-54
2022/07/22 07:52:40;;;;;;;13.75;6.20;;;;;;;22.14;73.80;101065.59;5053785;28;20041;-56
2022/07/22 07:55:12;;;;;;;7.45;6.45;;;;;;;22.28;73.29;101073.09;5055868;28;20052;-57
2022/07/22 07:57:39;;;;;;;13.20;6.57;;;;;;;22.27;73.39;101073.25;5055260;28;20044;-57
2022/07/22 08:00:09;;;;;;;11.35;6.70;;;;;;;21.98;75.19;101071.63;5050841;28;20061;-57
2022/07/22 08:02:38;;;;;;;6.95;6.03;;;;;;;22.11;75.32;101064.06;5051737;28;20068;-52
2022/07/22 08:05:07;;;;;;;10.32;6.00;;;;;;;22.38;74.21;101064.94;5042258;28;20048;-56
2022/07/22 08:07:36;;;;;;;6.40;5.65;;;;;;;22.50;72.27;101077.94;5055391;28;20052;-56
2022/07/22 08:10:05;;;;;;;6.60;5.55;;;;;;;22.30;73.35;101073.78;5051005;28;20059;-57
2022/07/22 08:12:53;;;;;;;8.32;5.50;;;;;;;22.66;71.95;101069.19;5047225;28;20071;-54
2022/07/22 08:15:21;;;;;;;6.47;5.15;;;;;;;22.96;70.26;101061.66;5052248;28;20049;-55
2022/07/22 08:17:52;;;;;;;5.32;4.50;;;;;;;23.22;69.77;101077.72;5061703;28;20139;-57
2022/07/22 08:20:21;;;;;;;6.38;4.90;;;;;;;22.83;69.64;101086.22;5050045;28;20401;-57
2022/07/22 08:22:49;;;;;;;7.60;4.68;;;;;;;23.00;69.43;101074.59;5047435;28;20524;-57
2022/07/22 08:25:17;;;;;;;9.90;4.60;;;;;;;22.98;68.83;101073.91;5054095;28;20354;-58
2022/07/22 08:27:45;;;;;;;7.50;4.20;;;;;;;23.04;68.68;101071.59;5047641;28;20053;-53
2022/07/22 08:30:12;;;;;;;5.63;5.13;;;;;;;22.83;68.38;101072.81;5053135;28;20060;-56
2022/07/22 08:32:39;;;;;;;7.15;4.53;;;;;;;22.73;69.37;101064.00;5055291;28;20060;-56
2022/07/22 08:35:07;;;;;;;8.45;4.50;;;;;;;22.73;69.78;101070.22;5056491;28;20057;-57
2022/07/22 08:37:35;;;;;;;15.63;6.20;;;;;;;22.88;69.04;101078.53;5057876;28;20060;-56
2022/07/22 08:40:03;;;;;;;8.68;4.40;;;;;;;22.92;68.81;101090.69;5049439;28;20535;-57
2022/07/22 08:42:30;;;;;;;7.32;4.65;;;;;;;23.07;68.01;101077.50;5050451;28;20049;-56
2022/07/22 08:44:58;;;;;;;7.20;4.93;;;;;;;23.20;67.63;101082.41;5049527;28;20056;-53
2022/07/22 08:47:32;;;;;;;6.50;4.30;;;;;;;23.19;67.39;101080.72;5043413;28;20410;-55
2022/07/22 08:50:10;;;;;;;9.55;4.93;;;;;;;23.02;67.84;101087.03;5051349;28;20065;-57
2022/07/22 08:52:37;;;;;;;8.48;4.22;;;;;;;22.94;67.41;101079.78;5047640;28;20401;-57
2022/07/22 08:55:06;;;;;;;12.13;4.22;;;;;;;22.79;67.61;101079.50;5055923;28;20056;-56
2022/07/22 08:57:33;;;;;;;5.78;4.25;;;;;;;22.50;68.54;101082.47;5057365;28;20063;-57
2022/07/22 09:00:01;;;;;;;5.78;4.40;;;;;;;22.26;69.59;101077.78;5046423;28;20049;-57
2022/07/22 09:02:36;;;;;;;7.85;4.90;;;;;;;22.13;70.90;101085.38;5042600;28;20056;-56
2022/07/22 09:05:04;;;;;;;;;;;;;;;22.07;71.32;101083.28;5055088;28;20072;-57
2022/07/22 09:07:51;;;;;;;8.57;5.07;;;;;;;22.06;71.80;101086.94;5048298;28;20305;-57
2022/07/22 09:10:21;;;;;;;10.65;4.47;;;;;;;21.98;72.49;101085.88;5055449;28;20469;-57
2022/07/22 09:13:03;;;;;;;8.15;5.40;;;;;;;22.02;72.79;101083.75;5050872;28;20049;-56
2022/07/22 09:15:33;;;;;;;13.30;5.38;;;;;;;22.32;71.98;101087.03;5055302;28;20053;-57
2022/07/22 09:18:00;;;;;;;5.75;4.47;;;;;;;;;;5054648;28;20061;-55
2022/07/22 09:20:32;;;;;;;4.82;4.32;;;;;;;22.55;70.72;101088.22;5054030;28;20120;-56
2022/07/22 09:22:59;;;;;;;9.95;3.88;;;;;;;22.56;70.91;101087.22;5051833;28;20077;-54
2022/07/22 09:25:32;;;;;;;9.73;4.25;;;;;;;22.81;70.42;101088.22;5052800;28;20078;-57
2022/07/22 09:28:04;;;;;;;8.15;4.50;;;;;;;22.66;70.49;101090.66;5054768;28;20072;-56
2022/07/22 09:30:45;;;;;;;4.97;4.07;;;;;;;;;;5052846;28;20041;-56
2022/07/22 09:33:13;;;;;;;4.60;3.80;;;;;;;22.23;72.04;101080.75;5050757;28;20155;-54
2022/07/22 09:35:41;;;;;;;7.35;3.67;;;;;;;22.23;72.26;101092.31;5051490;28;20398;-57
2022/07/22 09:38:16;;;;;;;;;;;;;;;22.26;72.20;101090.34;5052466;28;20067;-57
2022/07/22 09:40:46;;;;;;;6.22;3.83;;;;;;;22.11;73.26;101090.88;5050499;28;19992;-58
2022/07/22 09:43:17;;;;;;;4.32;3.92;;;;;;;22.22;73.02;101093.31;5054838;28;20128;-57
2022/07/22 09:45:59;;;;;;;4.00;3.60;;;;;;;22.40;72.53;101105.88;5038528;28;20075;-56
2022/07/22 09:48:26;;;;;;;7.78;3.75;;;;;;;22.54;71.51;101102.63;5049248;28;20505;-57
2022/07/22 09:50:56;;;;;;;4.93;3.42;;;;;;;22.49;71.70;101110.31;5050258;28;20049;-55
2022/07/22 09:53:27;;;;;;;7.32;3.05;;;;;;;22.71;70.57;101109.81;5055750;28;20055;-55
2022/07/22 09:55:56;;;;;;;3.22;2.80;;;;;;;22.81;70.24;101104.31;5056281;28;20060;-58
2022/07/22 09:58:24;;;;;;;5.75;2.50;;;;;;;23.07;69.13;101114.25;5061605;28;20147;-57
2022/07/22 10:00:54;;;;;;;4.15;2.22;;;;;;;23.10;68.07;101113.91;5051252;28;20060;-56
2022/07/22 10:03:25;;;;;;;3.83;2.03;;;;;;;23.13;68.27;101121.66;5050756;28;20064;-56
2022/07/22 10:05:54;;;;;;;5.10;2.13;;;;;;;23.11;68.04;101116.44;5058003;28;20048;-57
2022/07/22 10:08:21;;;;;;;2.85;1.77;;;;;;;23.43;66.84;101117.59;5047151;28;20513;-57
2022/07/22 10:10:49;;;;;;;2.38;2.00;;;;;;;23.29;67.97;101116.38;5046716;28;20132;-57
2022/07/22 10:13:17;;;;;;;4.90;2.92;;;;;;;23.70;66.82;101116.56;5051759;28;20053;-54
2022/07/22 10:15:45;;;;;;;6.00;2.35;;;;;;;24.12;65.67;101116.44;5048432;28;20421;-57
2022/07/22 10:18:17;;;;;;;2.30;2.10;;;;;;;24.15;65.48;101107.22;5058182;28;20052;-53
2022/07/22 10:20:45;;;;;;;3.60;2.00;;;;;;;24.38;64.98;101112.78;5049697;28;20057;-57
2022/07/22 10:23:13;;;;;;;2.95;2.45;;;;;;;24.46;63.47;101108.25;5058719;28;20524;-58
2022/07/22 10:25:54;;;;;;;6.55;3.35;;;;;;;24.44;63.22;101112.09;5052078;28;20061;-57
2022/07/22 10:28:34;;;;;;;6.32;2.28;;;;;;;24.54;63.13;101107.38;5047839;28;20397;-57
2022/07/22 10:31:22;;;;;;;4.60;2.22;;;;;;;24.48;63.29;101100.84;5050800;28;20084;-57
2022/07/22 10:33:52;;;;;;;3.08;2.22;;;;;;;24.28;63.64;101104.88;5054139;28;20068;-54
2022/07/22 10:36:36;;;;;;;4.03;2.08;;;;;;;23.97;64.87;101110.06;5048651;28;20053;-59
2022/07/22 10:39:04;;;;;;;2.50;2.00;;;;;;;23.96;65.09;101108.38;5053802;28;20059;-59
2022/07/22 10:41:37;;;;;;;2.95;2.33;;;;;;;23.98;65.01;101109.88;5048818;28;20045;-59
2022/07/22 10:44:05;;;;;;;2.80;2.45;;;;;;;24.11;64.69;101105.88;5054549;28;20053;-58
2022/07/22 10:46:50;;;;;;;5.90;2.38;;;;;;;24.40;63.61;101102.69;5048010;28;20049;-56
2022/07/22 10:49:24;;;;;;;3.00;2.30;;;;;;;24.69;62.54;101112.94;5045079;28;20074;-57
2022/07/22 10:52:07;;;;;;;3.80;2.60;;;;;;;24.73;62.08;101112.44;5055034;28;20402;-57
2022/07/22 10:55:18;;;;;;;3.60;2.15;;;;;;;25.09;61.61;101101.25;5040408;28;20059;-55
2022/07/22 10:57:45;;;;;;;6.50;3.10;;;;;;;25.30;60.36;101105.22;5048705;28;20066;-56
2022/07/22 11:00:12;;;;;;;8.48;2.80;;;;;;;25.24;59.48;101104.06;5055581;28;20056;-54
2022/07/22 11:02:40;;;;;;;5.07;2.67;;;;;;;25.42;59.37;101109.22;5045491;28;20053;-56
2022/07/22 11:05:08;;;;;;;5.28;2.40;;;;;;;25.39;58.50;101110.38;5060498;28;20397;-54
2022/07/22 11:07:46;;;;;;;2.30;1.98;;;;;;;25.54;58.09;101105.13;5056879;28;20040;-56
2022/07/22 11:10:16;;;;;;;2.35;2.10;;;;;;;25.78;57.38;101104.16;5061392;28;20055;-57
2022/07/22 11:12:46;;;;;;;2.95;2.30;;;;;;;25.42;59.70;101106.50;5055300;28;20079;-53
2022/07/22 11:15:14;;;;;;;3.70;1.88;;;;;;;25.32;60.54;101108.59;5054425;28;20045;-57
2022/07/22 11:17:41;;;;;;;7.28;2.20;;;;;;;25.31;60.23;101120.34;5059689;28;20049;-57
2022/07/22 11:20:10;;;;;;;7.78;2.78;;;;;;;25.15;60.40;101107.81;5051298;28;20041;-57
2022/07/22 11:22:38;;;;;;;2.55;2.33;;;;;;;25.19;60.07;101099.19;5061485;28;20057;-56
2022/07/22 11:25:07;;;;;;;3.63;2.40;;;;;;;25.19;59.50;101101.91;5057429;28;20607;-52
2022/07/22 11:27:34;;;;;;;2.72;2.50;;;;;;;25.13;59.77;101108.00;5053329;28;20049;-57
2022/07/22 11:30:06;;;;;;;4.22;3.05;;;;;;;25.23;59.63;101110.47;5044851;28;21009;-57
2022/07/22 11:32:42;;;;;;;2.78;2.47;;;;;;;25.33;59.82;101107.56;5063349;22;20052;-75